Time;durP1;ratioP1;P1;durP2;ratioP2;P2;SDS_P1;SDS_P2;PMS_P1;PMS_P2;Temp;Humidity;BMP_temperature;BMP_pressure;BME280_temperature;BME280_humidity;BME280_pressure;Samples;Min_cycle;Max_cycle;Signal;HPM_P1;HPM_P2
2024/01/29 00:02:01;;;;;;;1.15;0.30;;;;;;;-140.72;100.00;56839.16;5025341;28;20084;-74
2024/01/29 00:04:27;;;;;;;0.20;0.20;;;;;;;-140.72;100.00;56812.75;5014505;28;20030;-74
2024/01/29 00:06:52;;;;;;;0.20;0.20;;;;;;;-140.72;100.00;56835.09;5025118;28;20384;-74
2024/01/29 00:09:18;;;;;;;0.20;0.20;;;;;;;-140.72;100.00;56818.84;5019651;28;20176;-74
2024/01/29 00:11:43;;;;;;;0.10;0.10;;;;;;;-140.72;100.00;56794.47;5018126;28;20096;-74
2024/01/29 00:14:09;;;;;;;2.25;2.15;;;;;;;-140.72;100.00;56822.91;5015248;28;20032;-74
2024/01/29 00:16:34;;;;;;;0.20;0.20;;;;;;;-140.72;100.00;56847.28;5023659;28;20107;-74
2024/01/29 00:19:00;;;;;;;0.10;0.10;;;;;;;-140.72;100.00;56881.81;5022085;28;20408;-74
2024/01/29 00:21:25;;;;;;;0.30;0.30;;;;;;;-140.72;100.00;56871.66;5018110;28;20025;-74
2024/01/29 00:23:50;;;;;;;0.38;0.38;;;;;;;-140.72;100.00;56873.69;5017780;28;20033;-74
2024/01/29 00:26:16;;;;;;;0.20;0.20;;;;;;;-140.72;100.00;56879.78;5014626;28;20104;-73
2024/01/29 00:28:41;;;;;;;0.10;0.10;;;;;;;-140.72;100.00;56875.72;5018034;28;20567;-73
2024/01/29 00:31:07;;;;;;;0.10;0.10;;;;;;;-140.72;100.00;56833.06;5016468;28;20122;-73
2024/01/29 00:33:32;;;;;;;0.10;0.10;;;;;;;-140.72;100.00;56837.13;5019240;28;20116;-73
2024/01/29 00:35:58;;;;;;;0.10;0.10;;;;;;;-140.72;100.00;56857.44;5021125;28;20029;-74
2024/01/29 00:38:23;;;;;;;0.22;0.22;;;;;;;-140.72;100.00;56837.13;5016521;28;20226;-73
2024/01/29 00:40:49;;;;;;;0.40;0.40;;;;;;;-140.72;100.00;56889.94;5026624;28;20030;-73
2024/01/29 00:43:14;;;;;;;0.10;0.10;;;;;;;-140.72;100.00;56851.34;5014252;28;20049;-73
2024/01/29 00:45:40;;;;;;;0.10;0.10;;;;;;;-140.72;100.00;56853.38;5017002;28;20036;-73
2024/01/29 00:48:05;;;;;;;0.10;0.10;;;;;;;-140.72;100.00;56894.00;5015775;28;20037;-73
2024/01/29 00:50:30;;;;;;;0.20;0.20;;;;;;;-140.72;100.00;56908.22;5015373;28;20108;-74
2024/01/29 00:52:56;;;;;;;0.10;0.10;;;;;;;-140.72;100.00;56954.94;5020662;28;20064;-74
2024/01/29 00:55:21;;;;;;;0.17;0.17;;;;;;;-140.72;100.00;56975.25;5019214;28;20502;-73
2024/01/29 00:57:47;;;;;;;0.20;0.20;;;;;;;-140.72;100.00;57019.94;5022896;28;20029;-73
2024/01/29 01:00:12;;;;;;;0.13;0.13;;;;;;;-140.72;100.00;57011.81;5015331;28;20095;-73
2024/01/29 01:02:37;;;;;;;0.20;0.20;;;;;;;-140.72;100.00;57036.19;5027825;28;20077;-73
2024/01/29 01:05:03;;;;;;;0.10;0.10;;;;;;;-140.72;100.00;57011.81;5018466;28;20125;-74
2024/01/29 01:07:28;;;;;;;0.10;0.10;;;;;;;-140.72;100.00;57048.38;5019028;28;20026;-73
2024/01/29 01:09:54;;;;;;;0.10;0.10;;;;;;;-140.72;100.00;57060.59;5019079;28;20128;-74
2024/01/29 01:12:19;;;;;;;0.20;0.20;;;;;;;-140.72;100.00;57076.84;5022919;28;20042;-73
2024/01/29 01:14:45;;;;;;;0.20;0.20;;;;;;;-140.72;100.00;57158.09;5018210;28;20369;-73
2024/01/29 01:17:10;;;;;;;0.10;0.10;;;;;;;-140.72;100.00;57137.78;5019054;28;21465;-73
2024/01/29 01:19:35;;;;;;;0.10;0.10;;;;;;;-140.72;100.00;57202.78;5013041;28;20397;-73
2024/01/29 01:22:01;;;;;;;0.10;0.10;;;;;;;-140.72;100.00;57198.72;5016359;28;20045;-73
2024/01/29 01:24:26;;;;;;;0.20;0.20;;;;;;;-140.72;100.00;57306.41;5017307;28;20037;-73
2024/01/29 01:26:52;;;;;;;0.10;0.10;;;;;;;-140.72;100.00;57312.50;5016005;28;20026;-72
2024/01/29 01:29:18;;;;;;;0.10;0.10;;;;;;;-140.72;100.00;57336.88;5012495;28;21352;-73
2024/01/29 01:31:43;;;;;;;0.10;0.10;;;;;;;-140.72;100.00;57414.06;5018247;28;20470;-73
2024/01/29 01:34:09;;;;;;;0.20;0.20;;;;;;;-140.72;100.00;57412.03;5023351;28;20117;-73
2024/01/29 01:36:34;;;;;;;0.10;0.10;;;;;;;-140.72;100.00;57462.84;5017783;28;20033;-73
2024/01/29 01:38:59;;;;;;;0.10;0.10;;;;;;;-140.72;100.00;57477.06;5014494;28;20034;-73
2024/01/29 01:41:24;;;;;;;0.20;0.20;;;;;;;-140.72;100.00;57479.09;5016462;28;20045;-73
2024/01/29 01:43:50;;;;;;;0.20;0.20;;;;;;;-140.72;100.00;57454.72;5013250;28;20057;-73
2024/01/29 01:46:23;;;;;;;0.10;0.10;;;;;;;-140.72;100.00;57489.25;5019782;28;20064;-74
2024/01/29 01:48:50;;;;;;;0.10;0.10;;;;;;;-140.72;100.00;57487.22;5016226;28;20442;-74
2024/01/29 01:51:17;;;;;;;0.10;0.10;;;;;;;-140.72;100.00;57542.06;5020746;28;20018;-74
2024/01/29 01:53:44;;;;;;;0.10;0.10;;;;;;;-140.72;100.00;57580.69;5010731;28;20025;-74
2024/01/29 01:56:10;;;;;;;0.10;0.10;;;;;;;-140.72;100.00;57574.59;5012932;28;20026;-74
2024/01/29 01:58:35;;;;;;;0.10;0.10;;;;;;;-140.72;100.00;57617.25;5046944;28;20434;-75
2024/01/29 02:01:01;;;;;;;0.20;0.20;;;;;;;-140.72;100.00;57623.34;5019988;28;20542;-73
2024/01/29 02:03:27;;;;;;;0.10;0.10;;;;;;;-140.72;100.00;57657.88;5009892;28;20041;-73
2024/01/29 02:05:53;;;;;;;0.10;0.10;;;;;;;-140.72;100.00;57710.72;5011139;28;20056;-72
2024/01/29 02:08:19;;;;;;;0.20;0.20;;;;;;;-140.72;100.00;57739.16;5016162;28;20387;-73
2024/01/29 02:10:45;;;;;;;0.20;0.20;;;;;;;-140.72;100.00;57800.13;5018779;28;20427;-72
2024/01/29 02:13:11;;;;;;;0.10;0.10;;;;;;;-140.72;100.00;57840.75;5014637;28;20045;-73
2024/01/29 02:15:36;;;;;;;0.10;0.10;;;;;;;-140.72;100.00;57806.22;5015904;28;20076;-73
2024/01/29 02:18:02;;;;;;;0.10;0.10;;;;;;;-140.72;100.00;57871.22;5011287;28;20440;-73
2024/01/29 02:20:27;;;;;;;0.10;0.10;;;;;;;-140.72;100.00;57873.25;5020142;28;20038;-73
2024/01/29 02:22:53;;;;;;;59.63;3.53;;;;;;;-140.72;100.00;57936.25;5024865;28;20204;-73
2024/01/29 02:25:18;;;;;;;0.10;0.10;;;;;;;-140.72;100.00;57936.25;5010447;28;20045;-73
2024/01/29 02:27:43;;;;;;;0.10;0.10;;;;;;;-140.72;100.00;57926.09;4999774;28;20068;-73
2024/01/29 02:30:09;;;;;;;0.10;0.10;;;;;;;-140.72;100.00;57958.59;5020697;28;20060;-73
2024/01/29 02:32:34;;;;;;;0.20;0.20;;;;;;;-140.72;100.00;57905.78;5012133;28;20025;-73
2024/01/29 02:35:00;;;;;;;0.10;0.10;;;;;;;-140.72;100.00;57995.19;5011366;28;20112;-73
2024/01/29 02:37:25;;;;;;;0.10;0.10;;;;;;;-140.72;100.00;58058.19;5008433;28;20057;-73
2024/01/29 02:39:51;;;;;;;0.10;0.10;;;;;;;-140.72;100.00;58129.28;5009554;28;20052;-73
2024/01/29 02:42:17;;;;;;;0.20;0.20;;;;;;;-140.72;100.00;58135.41;5017247;28;20142;-73
2024/01/29 02:44:43;;;;;;;0.10;0.10;;;;;;;-140.72;100.00;58174.00;5014733;28;20172;-73
2024/01/29 02:47:08;;;;;;;0.20;0.20;;;;;;;-140.72;100.00;58222.78;5028458;28;20030;-73
2024/01/29 02:49:34;;;;;;;0.10;0.10;;;;;;;-140.72;100.00;58281.72;5022168;28;20044;-73
2024/01/29 02:51:59;;;;;;;0.10;0.10;;;;;;;-140.72;100.00;58328.44;5013174;28;20029;-73
2024/01/29 02:54:24;;;;;;;0.20;0.20;;;;;;;-140.72;100.00;58312.19;5013241;28;20026;-73
2024/01/29 02:56:50;;;;;;;0.38;0.38;;;;;;;-140.72;100.00;58318.28;5009436;28;20435;-73
2024/01/29 02:59:15;;;;;;;0.10;0.10;;;;;;;-140.72;100.00;58365.03;5015509;28;20033;-73
2024/01/29 03:01:40;;;;;;;4.15;4.03;;;;;;;-140.72;100.00;58450.38;5014181;28;20120;-73
2024/01/29 03:04:06;;;;;;;0.20;0.20;;;;;;;-140.72;100.00;58403.63;5015318;28;20038;-73
2024/01/29 03:06:31;;;;;;;0.10;0.10;;;;;;;-140.72;100.00;58454.44;5016742;28;20037;-73
2024/01/29 03:08:56;;;;;;;0.10;0.10;;;;;;;-140.72;100.00;58515.41;5018666;28;20032;-73
2024/01/29 03:11:22;;;;;;;0.10;0.10;;;;;;;-140.72;100.00;58539.78;5011020;28;20386;-72
2024/01/29 03:13:48;;;;;;;0.10;0.10;;;;;;;-140.72;100.00;58617.03;5010626;28;20132;-72
2024/01/29 03:16:13;;;;;;;0.10;0.10;;;;;;;-140.72;100.00;58641.41;5006151;28;20134;-73
2024/01/29 03:18:38;;;;;;;0.10;0.10;;;;;;;-140.72;100.00;58690.19;5010897;28;20471;-73
2024/01/29 03:21:04;;;;;;;0.10;0.10;;;;;;;-140.72;100.00;58712.53;5010649;28;20026;-73
2024/01/29 03:23:29;;;;;;;0.20;0.20;;;;;;;-140.72;100.00;58795.88;5008576;28;20030;-73
2024/01/29 03:25:55;;;;;;;0.20;0.20;;;;;;;-140.72;100.00;58816.19;5020459;28;20029;-73
2024/01/29 03:28:20;;;;;;;0.10;0.10;;;;;;;-140.72;100.00;58966.59;5001639;28;20121;-73
2024/01/29 03:30:45;;;;;;;0.10;0.10;;;;;;;-140.72;100.00;59007.25;5010530;28;20087;-73
2024/01/29 03:33:11;;;;;;;0.20;0.20;;;;;;;-140.72;100.00;59013.34;5010820;28;20112;-73
2024/01/29 03:35:36;;;;;;;0.10;0.10;;;;;;;-140.72;100.00;59190.16;5018360;28;20040;-73
2024/01/29 03:38:01;;;;;;;0.20;0.20;;;;;;;-140.72;100.00;59206.44;5005209;28;20474;-74
2024/01/29 03:40:27;;;;;;;0.20;0.20;;;;;;;-140.72;100.00;59198.31;5010288;28;20105;-74
2024/01/29 03:42:52;;;;;;;0.20;0.20;;;;;;;-140.72;100.00;59271.47;5001236;28;20065;-74
2024/01/29 03:45:17;;;;;;;0.10;0.10;;;;;;;-140.72;100.00;59279.59;5010060;28;20082;-74
2024/01/29 03:47:43;;;;;;;0.13;0.13;;;;;;;-140.72;100.00;59338.56;5002169;28;20377;-73
2024/01/29 03:50:08;;;;;;;0.20;0.20;;;;;;;-140.72;100.00;59405.63;5021410;28;20100;-73
2024/01/29 03:52:34;;;;;;;0.10;0.10;;;;;;;-140.72;100.00;59466.63;5008909;28;21007;-74
2024/01/29 03:55:00;;;;;;;0.30;0.30;;;;;;;-140.72;100.00;59537.75;5010467;28;20053;-73
2024/01/29 03:57:25;;;;;;;0.10;0.10;;;;;;;-140.72;100.00;59535.72;5019665;28;20034;-73
2024/01/29 03:59:54;;;;;;;0.20;0.20;;;;;;;-140.72;100.00;59588.59;5011111;28;20116;-73
2024/01/29 04:02:19;;;;;;;0.10;0.10;;;;;;;-140.72;100.00;59625.16;5021482;28;20476;-73
2024/01/29 04:04:45;;;;;;;0.20;0.20;;;;;;;-140.72;100.00;59635.34;5015714;28;20104;-73
2024/01/29 04:07:10;;;;;;;0.10;0.10;;;;;;;-140.72;100.00;59661.75;5006943;28;20121;-73
2024/01/29 04:09:36;;;;;;;0.20;0.20;;;;;;;-140.72;100.00;59639.41;4998677;28;20457;-73
2024/01/29 04:12:01;;;;;;;0.20;0.20;;;;;;;-140.72;100.00;59659.72;5008242;28;20049;-73
2024/01/29 04:14:28;;;;;;;0.20;0.20;;;;;;;-140.72;100.00;59739.00;5011660;28;20061;-73
2024/01/29 04:16:53;;;;;;;0.20;0.20;;;;;;;-140.72;100.00;59682.09;5020079;28;20026;-73
2024/01/29 04:19:19;;;;;;;0.20;0.20;;;;;;;-140.72;100.00;59706.50;5012600;28;20509;-73
2024/01/29 04:21:44;;;;;;;0.10;0.10;;;;;;;-140.72;100.00;59736.97;5010470;28;20125;-74
2024/01/29 04:24:13;;;;;;;0.20;0.20;;;;;;;-140.72;100.00;59714.63;5016299;28;20570;-73
2024/01/29 04:26:42;;;;;;;0.20;0.20;;;;;;;-140.72;100.00;59753.25;5009426;28;20116;-73
2024/01/29 04:29:10;;;;;;;0.20;0.20;;;;;;;-140.72;100.00;59730.88;5020378;28;20030;-73
2024/01/29 04:31:36;;;;;;;0.20;0.20;;;;;;;-140.72;100.00;59753.25;5051047;28;20184;-73
2024/01/29 04:34:01;;;;;;;0.20;0.20;;;;;;;-140.72;100.00;59688.19;5015074;28;20109;-73
2024/01/29 04:36:26;;;;;;;0.20;0.20;;;;;;;-140.72;100.00;59706.50;5012021;28;20531;-73
2024/01/29 04:38:52;;;;;;;0.20;0.20;;;;;;;-140.72;100.00;59704.44;5010363;28;20040;-73
2024/01/29 04:41:21;;;;;;;0.20;0.20;;;;;;;-140.72;100.00;59682.09;5012137;28;20065;-73
2024/01/29 04:43:47;;;;;;;;;;;;;;;-140.72;100.00;59734.94;5014192;28;20480;-74
2024/01/29 04:46:12;;;;;;;0.10;0.10;;;;;;;-140.72;100.00;59759.34;5021549;28;19909;-74
2024/01/29 04:48:39;;;;;;;0.20;0.20;;;;;;;-140.72;100.00;59804.06;5015579;28;20479;-73
2024/01/29 04:51:05;;;;;;;0.10;0.10;;;;;;;-140.72;100.00;59804.06;5004890;28;20056;-73
2024/01/29 04:53:31;;;;;;;0.20;0.20;;;;;;;-140.72;100.00;59806.09;5005580;28;20030;-73
2024/01/29 04:55:56;;;;;;;0.20;0.20;;;;;;;-140.72;100.00;59783.75;5014326;28;20080;-74
2024/01/29 04:58:22;;;;;;;0.20;0.20;;;;;;;-140.72;100.00;59785.78;5001238;28;20049;-73
2024/01/29 05:00:47;;;;;;;0.10;0.10;;;;;;;-140.72;100.00;59771.53;5019915;28;20053;-74
2024/01/29 05:03:12;;;;;;;0.10;0.10;;;;;;;-140.72;100.00;59820.31;5017171;28;20112;-75
2024/01/29 05:05:38;;;;;;;0.20;0.20;;;;;;;-140.72;100.00;59836.59;5011729;28;20116;-72
2024/01/29 05:08:04;;;;;;;0.20;0.20;;;;;;;-140.72;100.00;59895.53;4999689;28;20416;-73
2024/01/29 05:10:29;;;;;;;0.20;0.20;;;;;;;-140.72;100.00;59942.31;5010745;28;20084;-73
2024/01/29 05:12:54;;;;;;;0.20;0.20;;;;;;;-140.72;100.00;59966.69;5021056;28;20138;-73
2024/01/29 05:15:20;;;;;;;0.10;0.10;;;;;;;-140.72;100.00;59950.44;5006019;28;20113;-73
2024/01/29 05:17:45;;;;;;;0.30;0.30;;;;;;;-140.72;100.00;59968.72;5014200;28;20018;-73
2024/01/29 05:20:11;;;;;;;0.20;0.20;;;;;;;-140.72;100.00;59993.13;5018503;28;20395;-73
2024/01/29 05:22:36;;;;;;;0.20;0.20;;;;;;;-140.72;100.00;59989.06;5012629;28;20029;-73
2024/01/29 05:25:02;;;;;;;0.17;0.17;;;;;;;-140.72;100.00;59972.81;5018878;28;20033;-75
2024/01/29 05:27:27;;;;;;;0.20;0.20;;;;;;;-140.72;100.00;60003.28;5011798;28;20105;-75
2024/01/29 05:29:53;;;;;;;0.20;0.20;;;;;;;-140.72;100.00;59985.00;5011275;28;20105;-75
2024/01/29 05:32:19;;;;;;;0.20;0.20;;;;;;;-140.72;100.00;59964.66;5012253;28;20034;-76
2024/01/29 05:34:45;;;;;;;0.20;0.20;;;;;;;-140.72;100.00;59970.78;5002723;28;20113;-75
2024/01/29 05:37:10;;;;;;;0.20;0.20;;;;;;;-140.72;100.00;59970.78;5016496;28;20032;-73
2024/01/29 05:39:36;;;;;;;0.10;0.10;;;;;;;-140.72;100.00;59946.38;5016038;28;20034;-73
2024/01/29 05:42:01;;;;;;;0.10;0.10;;;;;;;-140.72;100.00;59932.13;5010711;28;20104;-74
2024/01/29 05:44:26;;;;;;;0.10;0.10;;;;;;;-140.72;100.00;59893.50;5010611;28;20085;-73
2024/01/29 05:46:52;;;;;;;0.38;0.38;;;;;;;-140.72;100.00;59877.25;5016011;28;20060;-73
2024/01/29 05:49:18;;;;;;;0.30;0.30;;;;;;;-140.72;100.00;59848.78;5017952;28;20032;-73
2024/01/29 05:51:44;;;;;;;0.17;0.17;;;;;;;-140.72;100.00;59893.50;5006454;28;20033;-72
2024/01/29 05:54:09;;;;;;;0.20;0.20;;;;;;;-140.72;100.00;59873.19;5015935;28;20031;-73
2024/01/29 05:56:34;;;;;;;0.20;0.20;;;;;;;-140.72;100.00;59852.84;5009077;28;20400;-74
2024/01/29 05:59:00;;;;;;;0.10;0.10;;;;;;;-140.72;100.00;59822.34;5006663;28;20392;-73
2024/01/29 06:01:25;;;;;;;0.20;0.20;;;;;;;-140.72;100.00;59769.50;5016651;28;20078;-73
2024/01/29 06:03:50;;;;;;;0.10;0.10;;;;;;;-140.72;100.00;59795.94;5015345;28;20033;-74
2024/01/29 06:06:16;;;;;;;0.13;0.13;;;;;;;-140.72;100.00;59800.00;5009744;28;20073;-74
2024/01/29 06:08:41;;;;;;;0.38;0.38;;;;;;;-140.72;100.00;59810.16;5011341;28;20540;-74
2024/01/29 06:11:06;;;;;;;0.10;0.10;;;;;;;-140.72;100.00;59820.31;5005529;28;20096;-74
2024/01/29 06:13:32;;;;;;;0.10;0.10;;;;;;;-140.72;100.00;59840.66;5041176;28;20052;-74
2024/01/29 06:15:58;;;;;;;0.20;0.20;;;;;;;-140.72;100.00;59865.06;5016476;28;20445;-74
2024/01/29 06:18:23;;;;;;;0.10;0.10;;;;;;;-140.72;100.00;59863.03;5012336;28;20476;-74
2024/01/29 06:20:49;;;;;;;0.10;0.10;;;;;;;-140.72;100.00;59832.53;5011799;28;20038;-74
2024/01/29 06:23:15;;;;;;;0.22;0.22;;;;;;;-140.72;100.00;59877.25;5005897;28;20033;-74
2024/01/29 06:25:40;;;;;;;0.20;0.20;;;;;;;-140.72;100.00;59919.94;5015196;28;20022;-75
2024/01/29 06:28:07;;;;;;;0.10;0.10;;;;;;;-140.72;100.00;59895.53;5014171;28;20030;-74
2024/01/29 06:30:33;;;;;;;0.10;0.10;;;;;;;-140.72;100.00;59834.56;5012400;28;20503;-75
2024/01/29 06:32:58;;;;;;;0.10;0.10;;;;;;;-140.72;100.00;59901.66;5012644;28;20057;-76
2024/01/29 06:35:24;;;;;;;0.10;0.10;;;;;;;-140.72;100.00;59930.09;5012932;28;20080;-74
2024/01/29 06:37:49;;;;;;;0.10;0.10;;;;;;;-140.72;100.00;59930.09;5008018;28;20022;-73
2024/01/29 06:40:15;;;;;;;0.10;0.10;;;;;;;-140.72;100.00;59924.00;5010874;28;20030;-74
2024/01/29 06:42:40;;;;;;;0.20;0.20;;;;;;;-140.72;100.00;59958.56;5005175;28;20392;-74
2024/01/29 06:45:07;;;;;;;0.30;0.30;;;;;;;-140.72;100.00;59968.72;5021228;28;20021;-72
2024/01/29 06:47:33;;;;;;;0.10;0.10;;;;;;;-140.72;100.00;59915.88;5006685;28;20025;-74
2024/01/29 06:49:58;;;;;;;0.10;0.10;;;;;;;-140.72;100.00;59881.31;5009828;28;20080;-75
2024/01/29 06:52:25;;;;;;;0.63;0.45;;;;;;;-140.72;100.00;59936.22;5009469;28;20056;-73
2024/01/29 06:54:51;;;;;;;0.20;0.20;;;;;;;-140.72;100.00;59913.84;5018448;28;20112;-74
2024/01/29 06:57:16;;;;;;;0.10;0.10;;;;;;;-140.72;100.00;59907.75;5016302;28;20088;-73
2024/01/29 06:59:42;;;;;;;0.20;0.20;;;;;;;-140.72;100.00;59887.41;5011263;28;20029;-75
2024/01/29 07:02:08;;;;;;;0.20;0.20;;;;;;;-140.72;100.00;59869.13;5012040;28;20333;-74
2024/01/29 07:04:33;;;;;;;0.10;0.10;;;;;;;-140.72;100.00;59930.09;5000926;28;20442;-74
2024/01/29 07:06:59;;;;;;;0.17;0.17;;;;;;;-140.72;100.00;59915.88;5013755;28;20042;-82
2024/01/29 07:09:25;;;;;;;0.13;0.13;;;;;;;-140.72;100.00;59919.94;5010297;28;20427;-74
2024/01/29 07:11:50;;;;;;;0.10;0.10;;;;;;;-140.72;100.00;59921.97;5007754;28;20457;-73
2024/01/29 07:14:15;;;;;;;0.20;0.20;;;;;;;-140.72;100.00;59940.28;5006555;28;20045;-75
2024/01/29 07:16:42;;;;;;;0.10;0.10;;;;;;;-140.72;100.00;59940.28;5007505;28;20050;-73
2024/01/29 07:19:07;;;;;;;0.20;0.20;;;;;;;-140.72;100.00;59966.69;5005547;28;20019;-73
2024/01/29 07:21:33;;;;;;;0.10;0.10;;;;;;;-140.72;100.00;59991.09;5017807;28;20026;-73
2024/01/29 07:23:58;;;;;;;0.10;0.10;;;;;;;-140.72;100.00;60019.56;5020950;28;20486;-74
2024/01/29 07:26:25;;;;;;;0.10;0.10;;;;;;;-140.72;100.00;60072.41;5008561;28;20041;-73
2024/01/29 07:28:50;;;;;;;0.20;0.20;;;;;;;-140.72;100.00;60064.28;5013283;28;20028;-73
2024/01/29 07:31:17;;;;;;;0.40;0.40;;;;;;;-140.72;100.00;60084.63;5018438;28;20021;-74
2024/01/29 07:33:43;;;;;;;0.20;0.20;;;;;;;-140.72;100.00;60080.56;5016110;28;20039;-74
2024/01/29 07:36:08;;;;;;;0.10;0.10;;;;;;;-140.72;100.00;60111.03;5003012;28;20034;-74
2024/01/29 07:38:34;;;;;;;0.10;0.10;;;;;;;-140.72;100.00;60139.50;5019519;28;20038;-74
2024/01/29 07:40:59;;;;;;;0.20;0.20;;;;;;;-140.72;100.00;60155.78;5015280;28;20510;-73
2024/01/29 07:43:24;;;;;;;0.10;0.10;;;;;;;-140.72;100.00;60123.25;5018493;28;20024;-75
2024/01/29 07:45:50;;;;;;;0.10;0.10;;;;;;;-140.72;100.00;60123.25;5010023;28;20026;-75
2024/01/29 07:48:16;;;;;;;0.20;0.20;;;;;;;-140.72;100.00;60100.88;5020957;28;20147;-75
2024/01/29 07:50:41;;;;;;;0.55;0.55;;;;;;;-140.72;100.00;60117.16;5002640;28;20088;-73
2024/01/29 07:53:06;;;;;;;0.77;0.60;;;;;;;-140.72;100.00;60058.19;5011132;28;20168;-73
2024/01/29 07:55:32;;;;;;;0.10;0.10;;;;;;;-140.72;100.00;60015.50;5017633;28;20020;-74
2024/01/29 07:57:57;;;;;;;0.20;0.20;;;;;;;-140.72;100.00;59991.09;5028294;28;20077;-75
2024/01/29 08:00:22;;;;;;;0.95;0.95;;;;;;;-140.72;100.00;59940.28;5018527;28;20092;-72
2024/01/29 08:02:48;;;;;;;0.10;0.10;;;;;;;-140.72;100.00;59930.09;5021099;28;20033;-74
2024/01/29 08:05:13;;;;;;;0.20;0.20;;;;;;;-140.72;100.00;59885.38;5004937;28;20034;-75
2024/01/29 08:07:39;;;;;;;0.20;0.20;;;;;;;-140.72;100.00;59826.44;5017645;28;20695;-72
2024/01/29 08:10:05;;;;;;;0.10;0.10;;;;;;;-140.72;100.00;59826.44;5013374;28;20061;-71
2024/01/29 08:12:30;;;;;;;0.10;0.10;;;;;;;-140.72;100.00;59771.53;5006955;28;20690;-71
2024/01/29 08:14:56;;;;;;;0.10;0.10;;;;;;;-140.72;100.00;59726.81;5014679;28;20054;-72
2024/01/29 08:17:21;;;;;;;0.10;0.10;;;;;;;-140.72;100.00;59739.00;5014050;28;20049;-72
2024/01/29 08:19:46;;;;;;;0.17;0.17;;;;;;;-140.72;100.00;59704.44;5005136;28;20027;-73
2024/01/29 08:22:12;;;;;;;0.82;0.82;;;;;;;-140.72;100.00;59694.28;5011653;28;20129;-72
2024/01/29 08:24:38;;;;;;;0.15;0.15;;;;;;;-140.72;100.00;59651.59;5005093;28;20025;-73
2024/01/29 08:27:04;;;;;;;0.10;0.10;;;;;;;-140.72;100.00;59621.09;5005614;28;20465;-71
2024/01/29 08:29:29;;;;;;;0.47;0.47;;;;;;;-140.72;100.00;59615.00;5014289;28;20100;-74
2024/01/29 08:31:54;;;;;;;0.25;0.25;;;;;;;-140.72;100.00;59645.50;5012064;28;20052;-72
2024/01/29 08:34:20;;;;;;;0.10;0.10;;;;;;;-140.72;100.00;59625.16;5017364;28;20469;-75
2024/01/29 08:36:45;;;;;;;0.17;0.17;;;;;;;-140.72;100.00;59647.53;5005093;28;20408;-74
2024/01/29 08:39:11;;;;;;;0.10;0.10;;;;;;;-140.72;100.00;59637.38;5016289;28;20550;-72
2024/01/29 08:41:36;;;;;;;0.10;0.10;;;;;;;-140.72;100.00;59663.78;5014740;28;20040;-73
2024/01/29 08:44:03;;;;;;;0.10;0.10;;;;;;;-140.72;100.00;59682.09;5009266;28;20085;-73
2024/01/29 08:46:28;;;;;;;0.20;0.20;;;;;;;-140.72;100.00;59637.38;5011651;28;20041;-73
2024/01/29 08:48:54;;;;;;;0.10;0.10;;;;;;;-140.72;100.00;59649.56;5001215;28;20100;-74
2024/01/29 08:51:19;;;;;;;0.52;0.52;;;;;;;-140.72;100.00;59612.97;5015978;28;20026;-73
2024/01/29 08:53:44;;;;;;;0.10;0.10;;;;;;;-140.72;100.00;59582.47;5010084;28;20476;-73
2024/01/29 08:56:10;;;;;;;0.10;0.10;;;;;;;-140.72;100.00;59527.59;5002415;28;20436;-73
2024/01/29 08:58:35;;;;;;;0.10;0.10;;;;;;;-140.72;100.00;59495.06;5003505;28;20041;-73
2024/01/29 09:01:02;;;;;;;0.10;0.10;;;;;;;-140.72;100.00;59499.13;5011405;28;20038;-73
2024/01/29 09:03:28;;;;;;;0.10;0.10;;;;;;;-140.72;100.00;59466.63;4996549;28;20446;-73
2024/01/29 09:05:53;;;;;;;0.30;0.30;;;;;;;-140.72;100.00;59468.66;4997742;28;20031;-74
2024/01/29 09:08:19;;;;;;;0.30;0.30;;;;;;;-140.72;100.00;59470.69;5005694;28;20081;-73
2024/01/29 09:10:44;;;;;;;0.10;0.10;;;;;;;-140.72;100.00;59417.84;4995913;28;20053;-74
2024/01/29 09:13:10;;;;;;;0.20;0.20;;;;;;;-140.72;100.00;59401.56;5004923;28;20069;-73
2024/01/29 09:15:35;;;;;;;0.10;0.10;;;;;;;-140.72;100.00;59393.44;5007550;28;20061;-74
2024/01/29 09:18:00;;;;;;;0.20;0.20;;;;;;;-140.72;100.00;59385.31;5007856;28;20033;-74
2024/01/29 09:20:27;;;;;;;0.30;0.30;;;;;;;-140.72;100.00;59344.66;5006228;28;20026;-73
2024/01/29 09:22:53;;;;;;;0.10;0.10;;;;;;;-140.72;100.00;59322.28;5004093;28;20450;-74
2024/01/29 09:25:19;;;;;;;0.10;0.10;;;;;;;-140.72;100.00;59275.53;5000788;28;20045;-73
2024/01/29 09:27:44;;;;;;;0.10;0.10;;;;;;;-140.72;100.00;59279.59;5006436;28;20034;-74
2024/01/29 09:30:10;;;;;;;0.10;0.10;;;;;;;-140.72;100.00;59190.16;5010843;28;20026;-72
2024/01/29 09:32:35;;;;;;;0.10;0.10;;;;;;;-140.72;100.00;59163.75;4996696;28;20041;-72
2024/01/29 09:35:00;;;;;;;0.10;0.10;;;;;;;-140.72;100.00;59129.19;5007739;28;20032;-72
2024/01/29 09:37:26;;;;;;;0.10;0.10;;;;;;;-140.72;100.00;59068.22;5013616;28;20028;-73
2024/01/29 09:39:53;;;;;;;0.10;0.10;;;;;;;-140.72;100.00;59062.13;5022431;28;20034;-73
2024/01/29 09:42:19;;;;;;;0.20;0.20;;;;;;;-140.72;100.00;59047.91;5018186;28;20091;-74
2024/01/29 09:44:47;;;;;;;0.10;0.10;;;;;;;-140.72;100.00;58993.00;5011580;28;20045;-73
2024/01/29 09:47:14;;;;;;;0.10;0.10;;;;;;;-140.72;100.00;58958.47;5010046;28;20089;-73
2024/01/29 09:49:40;;;;;;;0.30;0.30;;;;;;;-140.72;100.00;58867.00;5009988;28;20035;-73
2024/01/29 09:52:09;;;;;;;0.30;0.30;;;;;;;-140.72;100.00;58808.06;5007757;28;20030;-73
2024/01/29 09:54:36;;;;;;;0.35;0.35;;;;;;;-140.72;100.00;58704.41;4996591;28;20030;-73
2024/01/29 09:57:02;;;;;;;0.10;0.10;;;;;;;-140.72;100.00;58604.81;5006577;28;20033;-73
2024/01/29 09:59:27;;;;;;;0.10;0.10;;;;;;;-140.72;100.00;58523.53;5006290;28;20057;-73
2024/01/29 10:01:53;;;;;;;0.10;0.10;;;;;;;-140.72;100.00;58440.22;5011435;28;20097;-73
2024/01/29 10:04:21;;;;;;;0.08;0.08;;;;;;;-140.72;100.00;58239.03;5003665;28;20487;-73
2024/01/29 10:06:47;;;;;;;0.10;0.10;;;;;;;-140.72;100.00;58113.03;5007317;28;20045;-73
2024/01/29 10:09:12;;;;;;;1.00;1.00;;;;;;;-140.72;100.00;57991.13;5003344;28;20026;-73
2024/01/29 10:11:39;;;;;;;0.10;0.10;;;;;;;-140.72;100.00;57917.97;5010909;28;20422;-73
2024/01/29 10:14:05;;;;;;;0.10;0.10;;;;;;;-140.72;100.00;57852.94;5009305;28;20116;-73
2024/01/29 10:16:30;;;;;;;0.10;0.10;;;;;;;-140.72;100.00;57761.50;5002279;28;20412;-72
2024/01/29 10:19:00;;;;;;;0.10;0.10;;;;;;;-140.72;100.00;57735.09;5001094;28;20374;-73
2024/01/29 10:21:25;;;;;;;0.10;0.10;;;;;;;-140.72;100.00;57757.44;5011234;28;20483;-73
2024/01/29 10:23:57;;;;;;;0.10;0.10;;;;;;;-140.72;100.00;57735.09;5006653;28;20037;-73
2024/01/29 10:26:23;;;;;;;0.10;0.10;;;;;;;-140.72;100.00;57731.03;5034820;28;20026;-73
2024/01/29 10:29:02;;;;;;;0.10;0.10;;;;;;;-140.72;100.00;57739.16;5009458;28;20527;-73
2024/01/29 10:31:28;;;;;;;0.10;0.10;;;;;;;-140.72;100.00;57722.91;4995695;28;20034;-73
2024/01/29 10:33:54;;;;;;;1.55;1.45;;;;;;;-140.72;100.00;57714.78;5009441;28;20037;-73
2024/01/29 10:36:20;;;;;;;0.10;0.10;;;;;;;-140.72;100.00;57670.06;5010336;28;20034;-73
2024/01/29 10:38:46;;;;;;;0.10;0.10;;;;;;;-140.72;100.00;57647.72;5000226;28;20523;-73
2024/01/29 10:41:17;;;;;;;0.10;0.10;;;;;;;-140.72;100.00;57657.88;5010833;28;20125;-73
2024/01/29 10:43:47;;;;;;;0.55;0.55;;;;;;;-140.72;100.00;57631.47;5000802;28;20487;-73
2024/01/29 10:46:20;;;;;;;0.10;0.10;;;;;;;-140.72;100.00;57605.06;5011866;28;20030;-73
2024/01/29 10:48:46;;;;;;;0.10;0.10;;;;;;;-140.72;100.00;57507.53;5000600;28;20053;-73
2024/01/29 10:51:16;;;;;;;0.10;0.10;;;;;;;-140.72;100.00;57519.72;5009720;28;20432;-73
2024/01/29 10:53:42;;;;;;;0.47;0.40;;;;;;;-140.72;100.00;57475.03;5011819;28;20040;-73
2024/01/29 10:56:11;;;;;;;0.10;0.10;;;;;;;-140.72;100.00;57414.06;5016862;28;20493;-73
2024/01/29 10:58:37;;;;;;;0.30;0.30;;;;;;;-140.72;100.00;57432.38;5005779;28;20068;-73
2024/01/29 11:01:04;;;;;;;0.10;0.10;;;;;;;-140.72;100.00;57399.84;5004221;28;20033;-73
2024/01/29 11:03:30;;;;;;;0.20;0.20;;;;;;;-140.72;100.00;57391.72;5011053;28;20033;-73